Terminal Aerodrome Forecast
Issued by NWS

Home | Current Version | Previous Version | Text Only | Print | Product List | Glossary On
Versions: 1 2 3 4 5 6 7 8 9 10 11 12 13
000
FTUS45 KVEF 201120
TAFEED
TAF
KEED 201120Z 2012/2112 25011KT P6SM SKC
     FM201800 25015G25KT P6SM SCT250
     FM210100 28013G22KT P6SM SCT250
     FM210600 29008KT P6SM SCT250
     FM210900 34012G21KT P6SM SCT250=

USA.gov is the U.S. government's official web portal to all federal, state and local government web resources and services.